Time;durP1;ratioP1;P1;durP2;ratioP2;P2;SDS_P1;SDS_P2;PMS_P1;PMS_P2;Temp;Humidity;BMP_temperature;BMP_pressure;BME280_temperature;BME280_humidity;BME280_pressure;Samples;Min_cycle;Max_cycle;Signal;HPM_P1;HPM_P2
2023/12/05 00:01:55;;;;;;;;;1.00;1.00;;;;;9.23;80.65;99550.88;5055839;28;45619;-65
2023/12/05 00:04:21;;;;;;;;;2.50;2.00;;;;;9.22;80.47;99542.19;5049282;28;45521;-65
2023/12/05 00:06:46;;;;;;;;;1.00;0.75;;;;;9.11;80.17;99525.75;5052316;28;45760;-67
2023/12/05 00:09:12;;;;;;;;;5.25;1.50;;;;;9.21;79.70;99548.31;5055944;28;45400;-66
2023/12/05 00:11:49;;;;;;;;;1.00;1.00;;;;;9.06;80.01;99532.78;5048799;28;46524;-65
2023/12/05 00:14:15;;;;;;;;;2.50;1.00;;;;;9.20;79.93;99549.16;5046204;28;45681;-65
2023/12/05 00:16:41;;;;;;;;;0.00;0.00;;;;;9.17;80.46;99554.44;5053961;28;46073;-64
2023/12/05 00:19:06;;;;;;;;;0.50;0.00;;;;;8.85;80.14;99506.03;5060097;28;45499;-65
2023/12/05 00:21:31;;;;;;;;;2.00;0.75;;;;;9.15;80.15;99561.41;5060047;28;46222;-64
2023/12/05 00:23:57;;;;;;;;;2.00;2.00;;;;;9.13;80.33;99563.19;5058950;28;45382;-65
2023/12/05 00:26:23;;;;;;;;;1.75;1.25;;;;;8.93;80.59;99526.84;5058918;28;45424;-65
2023/12/05 00:28:49;;;;;;;;;2.75;0.00;;;;;9.14;80.07;99570.16;5060177;28;45432;-66
2023/12/05 00:31:15;;;;;;;;;2.50;1.00;;;;;9.01;79.83;99539.81;5059008;28;46667;-66
2023/12/05 00:33:41;;;;;;;;;1.00;1.00;;;;;9.14;79.56;99546.63;5060451;28;45401;-66
2023/12/05 00:36:07;;;;;;;;;2.00;1.00;;;;;9.14;79.20;99554.47;5060635;28;45444;-64
2023/12/05 00:38:33;;;;;;;;;0.00;0.00;;;;;8.96;79.32;99532.03;5060520;28;45472;-64
2023/12/05 00:41:00;;;;;;;;;0.50;0.50;;;;;8.91;79.09;99525.97;5059888;28;45432;-65
2023/12/05 00:43:26;;;;;;;;;1.00;0.00;;;;;8.89;79.40;99525.13;5059822;28;45414;-66
2023/12/05 00:45:55;;;;;;;;;1.00;1.00;;;;;9.06;79.12;99551.97;5058810;28;45390;-65
2023/12/05 00:48:20;;;;;;;;;2.25;1.00;;;;;8.78;78.93;99506.97;5059058;28;45926;-66
2023/12/05 00:50:47;;;;;;;;;1.00;1.00;;;;;9.11;78.64;99572.78;5059389;28;45286;-67
2023/12/05 00:53:12;;;;;;;;;0.00;0.00;;;;;9.05;78.50;99565.88;5060552;28;45569;-67
2023/12/05 00:55:38;;;;;;;;;0.00;0.00;;;;;9.09;78.53;99570.19;5059911;28;45301;-67
2023/12/05 00:58:04;;;;;;;;;1.00;1.00;;;;;9.11;78.33;99572.78;5058957;28;45366;-65
2023/12/05 01:00:29;;;;;;;;;0.50;0.00;;;;;9.03;78.51;99567.63;5058255;28;46157;-65
2023/12/05 01:02:55;;;;;;;;;1.00;1.00;;;;;8.99;78.34;99567.69;5058705;28;45512;-65
2023/12/05 01:05:21;;;;;;;;;1.75;0.00;;;;;9.04;78.05;99572.00;5058850;28;45579;-65
2023/12/05 01:07:47;;;;;;;;;1.25;1.00;;;;;9.08;78.59;99570.19;5045154;28;45489;-65
2023/12/05 01:10:13;;;;;;;;;2.00;0.00;;;;;9.01;77.62;99563.31;5059292;28;46276;-64
2023/12/05 01:12:45;;;;;;;;;0.75;0.75;;;;;9.06;77.78;99580.69;5054788;28;45594;-65
2023/12/05 01:15:14;;;;;;;;;0.00;0.00;;;;;9.11;77.72;99580.59;5055049;28;45476;-66
2023/12/05 01:17:40;;;;;;;;;4.00;0.00;;;;;9.07;77.45;99576.31;5047710;28;45393;-64
2023/12/05 01:20:09;;;;;;;;;1.50;0.00;;;;;8.82;77.14;99534.78;5055983;28;45499;-65
2023/12/05 01:22:35;;;;;;;;;1.00;1.00;;;;;8.99;77.12;99567.69;5044720;28;45457;-63
2023/12/05 01:25:00;;;;;;;;;0.00;0.00;;;;;9.08;76.94;99591.97;5059091;28;45513;-67
2023/12/05 01:27:27;;;;;;;;;0.00;0.00;;;;;8.52;76.65;99501.13;5057119;28;45512;-65
2023/12/05 01:29:54;;;;;;;;;1.00;1.00;;;;;9.06;76.52;99598.09;5051407;28;45506;-63
2023/12/05 01:32:19;;;;;;;;;0.50;0.00;;;;;8.95;76.60;99586.91;5051546;28;45370;-64
2023/12/05 01:34:45;;;;;;;;;2.00;0.00;;;;;8.66;76.29;99521.03;5058078;28;45497;-64
2023/12/05 01:37:10;;;;;;;;;2.00;0.00;;;;;9.04;76.60;99600.72;5057745;28;45554;-65
2023/12/05 01:39:36;;;;;;;;;1.00;0.00;;;;;8.97;76.24;99579.88;5054777;28;45518;-64
2023/12/05 01:42:11;;;;;;;;;0.50;0.50;;;;;8.87;75.82;99568.66;5045421;28;45351;-64
2023/12/05 01:44:37;;;;;;;;;1.25;0.25;;;;;8.75;75.28;99558.34;5043457;28;45473;-64
2023/12/05 01:47:03;;;;;;;;;1.50;0.50;;;;;9.02;75.88;99607.72;5042642;28;45446;-66
2023/12/05 01:49:33;;;;;;;;;0.00;0.00;;;;;9.03;75.71;99603.34;5052995;28;45685;-64
2023/12/05 01:52:01;;;;;;;;;0.00;0.00;;;;;9.01;75.26;99600.72;5045476;28;45568;-64
2023/12/05 01:54:29;;;;;;;;;0.00;0.00;;;;;9.05;75.68;99615.50;5054854;28;45486;-64
2023/12/05 01:57:14;;;;;;;;;1.00;0.75;;;;;8.90;74.75;99584.31;5042842;28;46135;-66
2023/12/05 01:59:41;;;;;;;;;1.75;1.00;;;;;9.05;74.48;99612.91;5042343;28;45713;-64
2023/12/05 02:02:07;;;;;;;;;0.00;0.00;;;;;8.14;74.16;99457.97;5050314;28;45647;-64
2023/12/05 02:04:33;;;;;;;;;3.50;0.00;;;;;9.02;74.29;99610.31;5052053;28;45453;-65
2023/12/05 02:07:00;;;;;;;;;2.00;0.00;;;;;8.97;74.14;99604.28;5052564;28;45405;-63
2023/12/05 02:09:26;;;;;;;;;1.00;0.00;;;;;9.01;73.93;99616.41;5042050;28;45450;-66
2023/12/05 02:11:51;;;;;;;;;0.00;0.00;;;;;9.03;73.48;99611.19;5049778;28;45424;-64
2023/12/05 02:14:19;;;;;;;;;0.00;0.00;;;;;8.85;73.51;99594.81;5042267;28;45311;-64
2023/12/05 02:17:02;;;;;;;;;1.50;0.00;;;;;9.02;73.44;99620.75;5046574;28;45460;-64
2023/12/05 02:19:42;;;;;;;;;0.75;0.00;;;;;9.02;73.61;99626.00;5042123;28;46144;-64
2023/12/05 02:22:47;;;;;;;;;0.00;0.00;;;;;8.93;73.71;99601.72;5039770;28;45572;-65
2023/12/05 02:25:18;;;;;;;;;0.00;0.00;;;;;9.04;74.44;99618.13;5053418;28;45654;-65
2023/12/05 02:27:47;;;;;;;;;15.25;13.50;;;;;8.85;74.18;99586.97;5052463;28;45369;-64
2023/12/05 02:30:15;;;;;;;;;1.75;1.75;;;;;8.94;74.13;99604.28;5047709;28;46136;-65
2023/12/05 02:32:41;;;;;;;;;1.75;1.00;;;;;9.06;74.79;99619.88;5055680;28;45503;-65
2023/12/05 02:35:07;;;;;;;;;1.00;0.00;;;;;8.76;74.54;99578.38;5057130;28;45572;-64
2023/12/05 02:37:59;;;;;;;;;0.50;0.50;;;;;8.95;75.38;99616.47;5057492;28;45346;-64
2023/12/05 02:40:32;;;;;;;;;0.00;0.00;;;;;8.99;75.40;99625.13;5057236;28;46395;-64
2023/12/05 02:43:01;;;;;;;;;0.00;0.00;;;;;9.02;75.48;99652.09;5057005;28;45252;-64
2023/12/05 02:45:36;;;;;;;;;0.00;0.00;;;;;8.89;76.16;99630.44;5056059;28;45413;-64
2023/12/05 02:48:10;;;;;;;;;0.00;0.00;;;;;8.67;76.29;99593.22;5055897;28;45551;-65
2023/12/05 02:50:36;;;;;;;;;0.00;0.00;;;;;9.01;76.43;99657.34;5056472;28;45665;-64
2023/12/05 02:53:02;;;;;;;;;0.00;0.00;;;;;8.97;76.78;99668.69;5055554;28;45687;-65
2023/12/05 02:55:27;;;;;;;;;0.00;0.00;;;;;8.96;76.88;99674.78;5057424;28;45568;-65
2023/12/05 02:57:53;;;;;;;;;0.50;0.50;;;;;8.51;76.66;99598.59;5057366;28;45397;-64
2023/12/05 03:00:19;;;;;;;;;0.00;0.00;;;;;8.49;77.19;99601.19;5056747;28;46604;-64
2023/12/05 03:02:45;;;;;;;;;0.00;0.00;;;;;8.62;76.36;99617.63;5056561;28;45580;-64
2023/12/05 03:05:11;;;;;;;;;0.00;0.00;;;;;8.69;76.86;99651.50;5057700;28;45398;-65
2023/12/05 03:07:37;;;;;;;;;0.00;0.00;;;;;8.67;76.63;99648.03;5057289;28;45283;-64
2023/12/05 03:10:04;;;;;;;;;0.00;0.00;;;;;8.64;76.35;99655.03;5056313;28;46402;-65
2023/12/05 03:12:33;;;;;;;;;0.50;0.00;;;;;8.72;77.00;99671.50;5056204;28;45453;-63
2023/12/05 03:15:00;;;;;;;;;0.00;0.00;;;;;8.70;77.17;99676.72;5055202;28;45529;-64
2023/12/05 03:17:26;;;;;;;;;0.00;0.00;;;;;8.67;76.20;99681.13;5056780;28;45450;-64
2023/12/05 03:19:52;;;;;;;;;0.00;0.00;;;;;8.55;76.19;99652.50;5055019;28;46685;-64
2023/12/05 03:22:17;;;;;;;;;0.00;0.00;;;;;8.44;76.62;99669.06;5042290;28;45337;-63
2023/12/05 03:24:43;;;;;;;;;0.00;0.00;;;;;8.53;76.89;99688.16;5056778;28;45326;-64
2023/12/05 03:27:09;;;;;;;;;0.00;0.00;;;;;8.47;76.86;99682.13;5054899;28;45290;-64
2023/12/05 03:29:34;;;;;;;;;0.00;0.00;;;;;8.34;77.85;99669.97;5043391;28;45670;-65
2023/12/05 03:32:00;;;;;;;;;0.00;0.00;;;;;8.46;78.05;99677.75;5056395;28;45426;-65
2023/12/05 03:34:25;;;;;;;;;0.00;0.00;;;;;8.46;78.20;99688.19;5057966;28;45533;-64
2023/12/05 03:36:51;;;;;;;;;0.00;0.00;;;;;8.45;77.66;99673.44;5057851;28;46015;-64
2023/12/05 03:39:16;;;;;;;;;0.00;0.00;;;;;8.42;76.54;99683.00;5055169;28;46198;-63
2023/12/05 03:41:47;;;;;;;;;0.00;0.00;;;;;8.29;76.34;99658.72;5056484;28;45367;-63
2023/12/05 03:44:13;;;;;;;;;1.00;0.00;;;;;8.29;76.10;99674.38;5060327;28;45350;-64
2023/12/05 03:46:38;;;;;;;;;0.00;0.00;;;;;8.27;75.58;99678.72;5060697;28;45354;-64
2023/12/05 03:49:04;;;;;;;;;0.00;0.00;;;;;8.13;76.29;99670.09;5059771;28;45399;-65
2023/12/05 03:51:36;;;;;;;;;1.25;0.00;;;;;8.19;75.70;99694.41;5060204;28;45303;-64
2023/12/05 03:54:02;;;;;;;;;0.00;0.00;;;;;7.91;76.62;99632.84;5060081;28;45518;-64
2023/12/05 03:56:31;;;;;;;;;0.00;0.00;;;;;8.16;76.16;99688.34;5061090;28;45479;-64
2023/12/05 03:58:56;;;;;;;;;0.00;0.00;;;;;8.05;76.70;99667.53;5059537;28;45433;-63
2023/12/05 04:01:22;;;;;;;;;0.00;0.00;;;;;7.95;76.83;99651.06;5049777;28;45642;-64
2023/12/05 04:03:48;;;;;;;;;0.00;0.00;;;;;8.10;77.07;99684.03;5049150;28;45402;-65
2023/12/05 04:06:24;;;;;;;;;0.00;0.00;;;;;7.89;77.26;99655.44;5052179;28;45375;-65
2023/12/05 04:08:53;;;;;;;;;0.00;0.00;;;;;7.96;77.40;99683.22;5047522;28;45517;-64
2023/12/05 04:11:32;;;;;;;;;0.00;0.00;;;;;7.70;78.16;99646.84;5053474;28;45478;-65
2023/12/05 04:13:59;;;;;;;;;1.00;0.00;;;;;8.00;78.26;99690.16;5048605;28;45477;-65
2023/12/05 04:16:26;;;;;;;;;0.00;0.00;;;;;8.15;78.68;99715.31;5052206;27;45509;-65
2023/12/05 04:18:59;;;;;;;;;0.00;0.00;;;;;7.84;78.30;99664.13;5045971;28;45488;-64
2023/12/05 04:21:26;;;;;;;;;0.00;0.00;;;;;8.15;78.71;99728.34;5039109;28;45439;-63
2023/12/05 04:23:55;;;;;;;;;0.00;0.00;;;;;8.13;78.67;99723.13;5054989;28;45823;-65
2023/12/05 04:26:20;;;;;;;;;0.00;0.00;;;;;8.03;78.93;99706.66;5060687;28;45215;-66
2023/12/05 04:28:46;;;;;;;;;0.00;0.00;;;;;8.09;79.04;99721.38;5045417;28;45616;-65
2023/12/05 04:31:20;;;;;;;;;0.00;0.00;;;;;8.16;79.37;99738.78;5060446;28;45477;-64
2023/12/05 04:33:46;;;;;;;;;0.00;0.00;;;;;8.17;79.72;99737.91;5061078;28;45547;-63
2023/12/05 04:36:11;;;;;;;;;0.00;0.00;;;;;8.16;79.94;99730.97;5061193;28;45474;-63
2023/12/05 04:38:42;;;;;;;;;0.00;0.00;;;;;8.17;79.52;99734.44;5059347;28;45354;-64
2023/12/05 04:41:07;;;;;;;;;0.00;0.00;;;;;7.67;79.85;99657.28;5059736;28;45264;-66
2023/12/05 04:43:33;;;;;;;;;0.00;0.00;;;;;8.17;80.12;99747.47;5061132;28;45303;-65
2023/12/05 04:45:59;;;;;;;;;0.00;0.00;;;;;8.15;80.25;99747.47;5061594;28;45365;-63
2023/12/05 04:48:25;;;;;;;;;1.00;0.00;;;;;7.97;80.54;99713.63;5060723;28;46088;-63
2023/12/05 04:50:51;;;;;;;;;0.00;0.00;;;;;8.18;80.24;99755.25;5058354;28;45864;-64
2023/12/05 04:53:22;;;;;;;;;0.00;0.00;;;;;7.99;80.59;99722.31;5058719;28;45277;-64
2023/12/05 04:55:48;;;;;;;;;0.00;0.00;;;;;8.06;80.68;99747.50;5058173;28;45447;-64
2023/12/05 04:58:14;;;;;;;;;0.00;0.00;;;;;7.90;81.12;99714.53;5058916;28;46241;-65
2023/12/05 05:00:40;;;;;;;;;0.00;0.00;;;;;8.02;81.07;99736.22;5060792;28;45484;-64
2023/12/05 05:03:06;;;;;;;;;0.50;0.00;;;;;7.69;81.12;99677.25;5060292;28;45194;-64
2023/12/05 05:05:31;;;;;;;;;0.00;0.00;;;;;8.17;81.29;99768.34;5060608;28;45379;-65
2023/12/05 05:07:57;;;;;;;;;0.00;0.00;;;;;7.93;80.63;99749.28;5058498;28;46025;-64
2023/12/05 05:10:22;;;;;;;;;0.00;0.00;;;;;8.21;80.87;99783.06;5058518;28;45496;-64
2023/12/05 05:12:49;;;;;;;;;0.00;0.00;;;;;8.20;81.30;99783.97;5058782;28;45410;-64
2023/12/05 05:15:14;;;;;;;;;0.00;0.00;;;;;8.08;81.19;99762.25;5060385;28;45500;-63
2023/12/05 05:17:45;;;;;;;;;0.00;0.00;;;;;7.90;81.11;99733.66;5060067;28;45357;-64
2023/12/05 05:20:12;;;;;;;;;0.00;0.00;;;;;8.14;81.16;99769.22;5058848;28;45251;-65
2023/12/05 05:22:42;;;;;;;;;1.00;0.00;;;;;8.30;80.93;99793.47;5057485;28;45543;-65
2023/12/05 05:25:08;;;;;;;;;0.50;0.00;;;;;8.29;81.50;99802.19;5059250;28;45340;-64
2023/12/05 05:27:34;;;;;;;;;0.00;0.00;;;;;8.03;81.08;99750.97;5054994;28;46157;-63
2023/12/05 05:30:01;;;;;;;;;2.00;0.00;;;;;7.91;81.05;99752.78;5048739;28;45516;-63
2023/12/05 05:32:26;;;;;;;;;0.00;0.00;;;;;8.26;81.31;99818.72;5058371;28;45501;-64
2023/12/05 05:34:52;;;;;;;;;0.00;0.00;;;;;7.77;81.23;99734.56;5058880;28;45564;-63
2023/12/05 05:37:18;;;;;;;;;0.75;0.00;;;;;8.25;81.19;99819.59;5059384;28;45635;-64
2023/12/05 05:39:44;;;;;;;;;0.00;0.00;;;;;8.32;81.22;99811.75;5059267;28;45460;-64
2023/12/05 05:42:09;;;;;;;;;2.00;0.00;;;;;8.33;80.89;99830.03;5058666;28;45516;-64
2023/12/05 05:44:35;;;;;;;;;2.50;1.00;;;;;8.33;80.97;99829.13;5058788;28;45523;-64
2023/12/05 05:47:00;;;;;;;;;2.00;0.00;;;;;8.33;81.08;99834.34;5058021;28;45916;-64
2023/12/05 05:49:26;;;;;;;;;1.00;0.00;;;;;8.29;81.08;99839.59;5059483;28;45413;-65
2023/12/05 05:51:51;;;;;;;;;0.00;0.00;;;;;8.30;81.25;99845.66;5056879;28;45414;-63
2023/12/05 05:54:21;;;;;;;;;1.00;1.00;;;;;8.20;81.47;99820.47;5058128;28;45457;-63
2023/12/05 05:56:47;;;;;;;;;0.00;0.00;;;;;8.29;80.66;99852.63;5058237;27;45556;-64
2023/12/05 05:59:13;;;;;;;;;0.00;0.00;;;;;8.22;80.88;99860.47;5058819;28;45389;-65
2023/12/05 06:01:38;;;;;;;;;0.00;0.00;;;;;8.28;80.92;99863.06;5059576;28;45499;-63
2023/12/05 06:04:04;;;;;;;;;0.00;0.00;;;;;8.20;81.11;99844.81;5059662;28;45525;-65
2023/12/05 06:06:31;;;;;;;;;0.50;0.00;;;;;7.88;81.08;99797.97;5058816;28;45421;-65
2023/12/05 06:08:56;;;;;;;;;0.25;0.25;;;;;8.28;81.13;99863.94;5058675;28;45998;-64
2023/12/05 06:11:22;;;;;;;;;0.00;0.00;;;;;8.23;81.40;99873.53;5057388;28;45477;-66
2023/12/05 06:13:52;;;;;;;;;0.00;0.00;;;;;8.05;81.16;99839.66;5056668;28;45465;-65
2023/12/05 06:16:18;;;;;;;;;0.00;0.00;;;;;8.23;81.13;99885.69;5057768;28;45538;-64
2023/12/05 06:18:49;;;;;;;;;1.00;1.00;;;;;8.11;81.38;99857.88;5058233;28;45530;-64
2023/12/05 06:21:19;;;;;;;;;0.25;0.25;;;;;8.23;81.43;99891.78;5050788;28;45375;-64
2023/12/05 06:23:44;;;;;;;;;1.00;0.00;;;;;8.21;81.64;99888.31;5053047;28;45443;-64
2023/12/05 06:26:10;;;;;;;;;0.00;0.00;;;;;8.15;81.26;99883.09;5055946;28;45398;-64
2023/12/05 06:28:35;;;;;;;;;1.00;1.00;;;;;8.22;80.88;99899.59;5045245;28;45516;-64
2023/12/05 06:31:04;;;;;;;;;2.25;2.00;;;;;8.11;80.44;99880.50;5056974;28;45380;-64
2023/12/05 06:33:31;;;;;;;;;0.00;0.00;;;;;8.31;80.71;99906.56;5059025;28;45529;-64
2023/12/05 06:35:56;;;;;;;;;3.00;1.00;;;;;8.28;81.03;99904.78;5056881;28;46560;-65
2023/12/05 06:38:22;;;;;;;;;0.50;0.50;;;;;8.32;80.51;99914.38;5057303;28;46046;-65
2023/12/05 06:40:47;;;;;;;;;0.25;0.25;;;;;8.08;79.83;99882.22;5057521;28;45401;-65
2023/12/05 06:43:13;;;;;;;;;2.00;1.00;;;;;8.15;79.83;99901.34;5057571;28;45513;-64
2023/12/05 06:45:39;;;;;;;;;0.00;0.00;;;;;8.32;79.93;99936.97;5058006;28;45663;-64
2023/12/05 06:48:04;;;;;;;;;0.00;0.00;;;;;8.23;79.50;99915.28;5058431;28;45717;-64
2023/12/05 06:50:31;;;;;;;;;0.50;0.50;;;;;8.08;79.95;99891.81;5056639;28;45509;-65
2023/12/05 06:52:57;;;;;;;;;1.75;1.00;;;;;7.98;79.82;99892.69;5057327;27;45604;-64
2023/12/05 06:55:26;;;;;;;;;1.00;0.00;;;;;8.15;79.85;99911.78;5056780;28;45583;-64
2023/12/05 06:57:52;;;;;;;;;2.00;1.00;;;;;7.95;79.67;99874.41;5056904;28;45929;-65
2023/12/05 07:00:18;;;;;;;;;0.00;0.00;;;;;8.17;79.55;99924.84;5057034;28;45419;-65
2023/12/05 07:02:44;;;;;;;;;4.00;0.50;;;;;8.32;79.65;99945.69;5057095;28;45430;-64
2023/12/05 07:05:10;;;;;;;;;2.00;1.00;;;;;8.15;79.71;99930.03;5057221;28;45448;-65
2023/12/05 07:07:36;;;;;;;;;1.00;1.00;;;;;8.03;79.80;99920.50;5056968;28;45580;-65
2023/12/05 07:10:06;;;;;;;;;0.75;0.50;;;;;8.26;79.63;99969.19;5056852;28;45405;-65
2023/12/05 07:12:32;;;;;;;;;1.00;1.00;;;;;8.16;79.97;99957.00;5057275;28;45304;-64
2023/12/05 07:14:58;;;;;;;;;2.50;1.00;;;;;8.20;80.30;99963.94;5055730;28;46279;-66
2023/12/05 07:17:24;;;;;;;;;0.50;0.00;;;;;8.03;79.88;99941.34;5046298;28;45504;-64
2023/12/05 07:19:49;;;;;;;;;0.00;0.00;;;;;8.23;80.03;99985.72;5041557;28;45383;-64
2023/12/05 07:22:15;;;;;;;;;2.75;1.50;;;;;8.20;80.16;99972.63;5040503;28;45453;-66
2023/12/05 07:24:40;;;;;;;;;1.00;1.00;;;;;8.27;80.16;99992.63;5058003;28;45430;-65
2023/12/05 07:27:06;;;;;;;;;2.75;2.00;;;;;8.22;80.30;99983.09;5057251;28;45216;-67
2023/12/05 07:29:38;;;;;;;;;2.50;1.00;;;;;8.12;80.43;99974.41;5042727;28;45417;-64
2023/12/05 07:32:04;;;;;;;;;0.50;0.50;;;;;8.15;80.32;99986.56;5056825;28;45892;-65
2023/12/05 07:34:33;;;;;;;;;1.00;1.00;;;;;8.26;80.22;100008.31;5057620;28;45527;-67
2023/12/05 07:36:58;;;;;;;;;1.00;1.00;;;;;7.94;80.23;99959.59;5057779;28;45217;-66
2023/12/05 07:39:25;;;;;;;;;1.00;1.00;;;;;7.63;80.18;99912.66;5057791;28;45472;-65
2023/12/05 07:41:55;;;;;;;;;2.00;2.00;;;;;8.12;80.48;100002.22;5058249;28;45279;-68
2023/12/05 07:44:20;;;;;;;;;3.25;1.00;;;;;8.22;80.27;100022.22;5057331;27;45381;-67
2023/12/05 07:46:52;;;;;;;;;1.00;1.00;;;;;7.93;80.30;99973.53;5056381;28;45442;-66
2023/12/05 07:49:19;;;;;;;;;1.50;1.00;;;;;7.32;80.45;99887.44;5056298;28;45539;-69
2023/12/05 07:51:44;;;;;;;;;1.25;1.00;;;;;8.07;80.50;100013.53;5056807;28;45447;-66
2023/12/05 07:54:10;;;;;;;;;1.50;1.00;;;;;8.21;80.57;100031.78;5056475;28;46027;-67
2023/12/05 07:56:35;;;;;;;;;1.75;1.00;;;;;8.24;80.62;100041.34;5055973;28;45424;-65
2023/12/05 07:59:01;;;;;;;;;3.50;1.50;;;;;8.22;80.30;100037.88;5056550;28;45488;-64
2023/12/05 08:01:27;;;;;;;;;1.00;1.00;;;;;8.28;80.16;100041.34;5056515;28;45476;-65
2023/12/05 08:03:53;;;;;;;;;3.00;1.75;;;;;8.29;79.77;100044.84;5068463;28;47797;-63
2023/12/05 08:06:19;;;;;;;;;2.00;2.00;;;;;8.27;79.68;100051.78;5049287;28;45178;-64
2023/12/05 08:08:47;;;;;;;;;2.50;1.75;;;;;8.24;79.45;100030.91;5056222;28;45421;-65
2023/12/05 08:11:14;;;;;;;;;3.00;2.25;;;;;8.33;79.53;100062.22;5055983;28;45447;-66
2023/12/05 08:13:39;;;;;;;;;2.00;2.00;;;;;8.27;79.70;100047.44;5056160;28;46453;-66
2023/12/05 08:16:09;;;;;;;;;4.25;2.00;;;;;8.26;79.84;100044.84;5054115;28;45650;-63
2023/12/05 08:18:34;;;;;;;;;2.25;2.25;;;;;8.36;79.68;100067.44;5056170;28;45417;-64
2023/12/05 08:21:00;;;;;;;;;1.75;1.75;;;;;8.29;79.74;100057.88;5049768;28;45408;-66
2023/12/05 08:23:25;;;;;;;;;2.00;2.00;;;;;8.38;79.87;100070.94;5047837;28;46407;-64
2023/12/05 08:25:51;;;;;;;;;1.25;1.25;;;;;8.38;79.57;100077.91;5055161;28;45349;-63
2023/12/05 08:28:17;;;;;;;;;2.00;2.00;;;;;8.39;79.65;100077.88;5047675;28;45370;-66
2023/12/05 08:30:42;;;;;;;;;5.25;2.25;;;;;8.36;79.53;100079.63;5054153;28;45501;-65
2023/12/05 08:33:08;;;;;;;;;2.00;2.00;;;;;8.40;79.62;100091.81;5059216;28;46112;-65
2023/12/05 08:35:34;;;;;;;;;2.00;2.00;;;;;8.38;79.56;100090.94;5059057;28;45421;-67
2023/12/05 08:38:00;;;;;;;;;4.25;2.00;;;;;8.35;79.34;100078.75;5059285;28;45365;-65
2023/12/05 08:40:25;;;;;;;;;2.50;2.50;;;;;8.42;79.20;100096.19;5059228;28;45310;-63
2023/12/05 08:42:51;;;;;;;;;4.00;4.00;;;;;8.31;79.05;100082.22;5059630;28;45547;-65
2023/12/05 08:45:18;;;;;;;;;2.00;2.00;;;;;8.34;78.88;100086.59;5061443;28;45537;-64
2023/12/05 08:47:44;;;;;;;;;2.75;2.75;;;;;8.42;78.54;100098.81;5060392;28;45464;-64
2023/12/05 08:50:09;;;;;;;;;1.00;1.00;;;;;8.18;78.63;100063.06;5059469;28;46910;-64
2023/12/05 08:52:35;;;;;;;;;2.50;2.00;;;;;8.40;78.70;100100.53;5074439;27;47555;-64
2023/12/05 08:55:00;;;;;;;;;2.00;2.00;;;;;8.47;78.56;100109.22;5059315;28;45382;-66
2023/12/05 08:57:26;;;;;;;;;1.00;1.00;;;;;8.39;78.54;100105.72;5059327;28;45452;-65
2023/12/05 08:59:52;;;;;;;;;3.25;2.00;;;;;8.37;78.53;100097.88;5074635;27;45586;-66
2023/12/05 09:02:21;;;;;;;;;2.00;2.00;;;;;8.37;78.62;100105.69;5059126;28;45894;-63
2023/12/05 09:04:46;;;;;;;;;1.25;1.25;;;;;8.47;78.17;100122.28;5059217;28;45474;-65
2023/12/05 09:07:12;;;;;;;;;2.00;1.00;;;;;8.53;78.29;100143.16;5058746;28;45275;-64
2023/12/05 09:09:44;;;;;;;;;2.50;2.50;;;;;8.52;78.46;100143.16;5058928;28;45422;-64
2023/12/05 09:12:09;;;;;;;;;4.00;1.25;;;;;8.31;78.63;100103.09;5057134;28;47949;-64
2023/12/05 09:14:38;;;;;;;;;2.75;1.75;;;;;8.41;78.28;100117.94;5060235;28;45341;-64
2023/12/05 09:17:05;;;;;;;;;1.00;1.00;;;;;8.55;78.66;100141.44;5058889;28;45437;-64
2023/12/05 09:19:34;;;;;;;;;3.00;1.50;;;;;8.59;78.21;100155.34;5058898;28;45535;-64
2023/12/05 09:21:59;;;;;;;;;1.75;1.00;;;;;8.19;78.08;100097.88;5044244;28;46944;-65
2023/12/05 09:24:25;;;;;;;;;1.00;1.00;;;;;8.60;78.39;100157.09;5060234;28;45468;-65
2023/12/05 09:26:51;;;;;;;;;1.25;1.00;;;;;8.15;78.38;100081.34;5060143;28;45343;-63
2023/12/05 09:29:16;;;;;;;;;2.00;1.00;;;;;7.82;78.31;100035.22;5060245;28;45392;-64
2023/12/05 09:31:43;;;;;;;;;1.50;1.50;;;;;8.60;78.08;100168.41;5074715;27;47732;-66
2023/12/05 09:34:08;;;;;;;;;1.00;1.00;;;;;8.60;77.86;100172.75;5059701;28;45433;-64
2023/12/05 09:36:34;;;;;;;;;0.75;0.75;;;;;8.56;78.18;100179.69;5059562;28;45279;-65
2023/12/05 09:38:59;;;;;;;;;0.50;0.50;;;;;8.59;78.09;100181.44;5075461;28;45177;-63
2023/12/05 09:41:26;;;;;;;;;2.00;2.00;;;;;8.44;77.85;100154.47;5058910;28;45517;-65
2023/12/05 09:43:53;;;;;;;;;3.00;1.00;;;;;8.46;78.02;100165.78;5059740;28;45330;-66
2023/12/05 09:46:20;;;;;;;;;1.75;1.75;;;;;8.64;77.75;100198.00;5059785;28;45439;-65
2023/12/05 09:48:49;;;;;;;;;2.25;2.00;;;;;8.66;77.36;100191.91;5071084;27;45379;-64
2023/12/05 09:51:16;;;;;;;;;0.25;0.25;;;;;8.19;77.98;100119.63;5050236;28;46525;-65
2023/12/05 09:53:43;;;;;;;;;1.00;1.00;;;;;8.63;77.52;100189.28;5057785;28;45437;-66
2023/12/05 09:56:13;;;;;;;;;0.00;0.00;;;;;8.63;77.43;100184.06;5058107;28;45308;-64
2023/12/05 09:58:44;;;;;;;;;2.25;1.75;;;;;8.74;77.37;100202.38;5058840;28;45506;-66
2023/12/05 10:01:16;;;;;;;;;2.00;2.00;;;;;8.75;77.23;100214.53;5059366;28;45437;-64
2023/12/05 10:03:54;;;;;;;;;1.25;1.25;;;;;8.09;77.65;100123.03;5059198;28;45280;-64
2023/12/05 10:06:20;;;;;;;;;1.00;1.00;;;;;8.53;77.59;100174.50;5059524;28;45460;-65
2023/12/05 10:08:50;;;;;;;;;2.00;2.00;;;;;8.73;77.30;100207.56;5058820;28;45453;-65
2023/12/05 10:11:17;;;;;;;;;3.25;3.25;;;;;8.81;77.25;100214.56;5057284;28;45483;-66
2023/12/05 10:13:44;;;;;;;;;2.75;1.50;;;;;8.87;77.68;100229.34;5057593;28;45801;-66
2023/12/05 10:16:10;;;;;;;;;5.00;4.00;;;;;8.74;77.33;100212.81;5057509;28;45463;-64
2023/12/05 10:18:38;;;;;;;;;3.00;3.00;;;;;8.77;77.92;100225.84;5057901;28;45377;-63
2023/12/05 10:21:04;;;;;;;;;5.25;3.25;;;;;8.68;77.31;100213.69;5056217;28;47513;-65
2023/12/05 10:23:30;;;;;;;;;3.50;3.00;;;;;8.70;77.43;100219.75;5057883;28;45374;-64
2023/12/05 10:26:01;;;;;;;;;2.50;2.50;;;;;8.66;76.79;100214.53;5057290;28;45317;-65
2023/12/05 10:28:27;;;;;;;;;6.00;3.75;;;;;8.54;76.74;100199.72;5046699;28;46549;-66
2023/12/05 10:30:52;;;;;;;;;4.25;2.00;;;;;8.80;76.72;100244.13;5055822;28;45477;-65
2023/12/05 10:33:23;;;;;;;;;3.50;2.00;;;;;8.74;76.51;100231.09;5058464;28;45532;-65
2023/12/05 10:35:49;;;;;;;;;4.00;3.25;;;;;8.85;76.42;100252.88;5058304;28;45574;-64
2023/12/05 10:38:19;;;;;;;;;2.00;2.00;;;;;8.85;76.50;100258.09;5059107;28;45417;-65
2023/12/05 10:40:56;;;;;;;;;3.75;3.75;;;;;8.83;76.28;100257.22;5056929;28;46811;-63
2023/12/05 10:43:24;;;;;;;;;3.75;3.75;;;;;8.85;76.51;100267.63;5056815;28;46222;-65
2023/12/05 10:45:50;;;;;;;;;3.25;3.25;;;;;8.68;75.99;100228.44;5058133;28;45625;-66
2023/12/05 10:48:17;;;;;;;;;6.00;2.25;;;;;8.58;76.04;100222.34;5056737;28;45355;-65
2023/12/05 10:50:45;;;;;;;;;3.25;3.00;;;;;8.77;75.89;100257.19;5056846;28;46186;-66
2023/12/05 10:53:12;;;;;;;;;3.50;3.25;;;;;8.57;75.73;100235.41;5056481;28;45353;-67
2023/12/05 10:55:38;;;;;;;;;3.25;2.50;;;;;8.75;75.89;100271.97;5058407;28;45312;-68
2023/12/05 10:58:04;;;;;;;;;2.00;2.00;;;;;7.80;75.88;100128.19;5058414;28;45493;-67
2023/12/05 11:00:31;;;;;;;;;3.00;2.00;;;;;8.59;78.10;100252.81;5058396;28;45479;-67
2023/12/05 11:02:56;;;;;;;;;4.00;2.00;;;;;8.62;75.78;100233.69;5056385;28;45613;-66
2023/12/05 11:05:24;;;;;;;;;1.50;1.50;;;;;8.75;75.41;100264.16;5057209;28;45402;-66
2023/12/05 11:07:51;;;;;;;;;4.00;2.25;;;;;8.82;75.54;100281.56;5055780;28;45383;-66
2023/12/05 11:10:17;;;;;;;;;1.00;0.50;;;;;8.66;75.53;100267.63;5056257;28;45434;-69
2023/12/05 11:12:46;;;;;;;;;6.00;2.00;;;;;8.79;75.07;100284.19;5054782;28;45377;-65
2023/12/05 11:15:16;;;;;;;;;2.00;1.25;;;;;8.78;75.06;100286.78;5057228;28;45405;-67
2023/12/05 11:17:48;;;;;;;;;4.25;2.50;;;;;8.75;75.65;100282.41;5058338;28;45286;-65
2023/12/05 11:20:23;;;;;;;;;4.75;3.25;;;;;8.74;75.86;100285.91;5057656;28;45453;-69
2023/12/05 11:23:01;;;;;;;;;4.25;4.25;;;;;8.74;75.74;100285.91;5056936;28;45381;-66
2023/12/05 11:25:46;;;;;;;;;5.75;4.50;;;;;8.72;76.14;100276.34;5057133;28;45315;-65
2023/12/05 11:28:50;;;;;;;;;5.00;3.25;;;;;8.78;75.95;100292.00;5046564;28;45597;-66
2023/12/05 11:31:49;;;;;;;;;6.25;2.00;;;;;8.80;75.74;100296.34;5042742;28;45440;-66
2023/12/05 11:34:53;;;;;;;;;4.25;4.25;;;;;8.82;75.65;100291.16;5055618;28;45467;-66
2023/12/05 11:37:52;;;;;;;;;2.25;2.25;;;;;8.70;75.59;100277.19;5037503;28;45532;-64
2023/12/05 11:40:23;;;;;;;;;5.00;5.00;;;;;8.81;75.51;100294.63;5037455;28;45584;-66
2023/12/05 11:43:08;;;;;;;;;6.00;4.00;;;;;8.87;75.75;100300.75;5036895;28;45529;-64